Latest Weather Observations for Swanbourne

IDW60901

Issued at 10:55 pm WST Tuesday 29 July 2014 (issued every 10 minutes, with the page automatically refreshed every 10 minutes)

About weather observations | Map of Perth area stations | Latest observations for Perth area | Other Formats
Station Details ID: 009215 Name: SWANBOURNE Lat: -31.96 Lon: 115.76 Height: 40.96 m
Data from the previous 72 hours. | See also: Recent months at Swanbourne
Date/Time
WST
Tmp

°C
App
Tmp
°C
Dew
Point
°C
Rel
Hum
%
Delta-T

°C
Wind Press
QNH
hPa
Press
MSL
hPa
Rain
since
9 am
mm
Dir
 
Spd
km/h
Gust
km/h
Spd
kts
Gust
kts
29/10:30pm 16.5 13.5 9.2 62 3.8 WNW 15 24 8 13 - - 0.0
29/10:00pm 16.6 13.2 9.3 62 3.8 WNW 17 26 9 14 - - 0.0
29/09:30pm 16.6 13.5 10.2 66 3.4 WNW 17 24 9 13 - - 0.0
29/09:00pm 16.8 13.4 10.6 67 3.3 WNW 19 28 10 15 - - 0.0
29/08:30pm 16.7 13.6 8.9 60 4.0 WNW 15 26 8 14 - - 0.0
29/08:00pm 16.6 12.5 8.8 60 4.0 WNW 20 28 11 15 - - 0.0
29/07:30pm 16.6 12.9 9.5 63 3.7 WNW 19 30 10 16 - - 0.0
29/07:00pm 16.6 12.7 9.5 63 3.7 WNW 20 30 11 16 - - 0.0
29/06:30pm 16.6 13.4 9.8 64 3.6 WNW 17 22 9 12 - - 0.0
29/06:00pm 16.6 14.1 10.9 69 3.1 W 15 24 8 13 - - 0.0
29/05:30pm 16.5 14.4 11.2 71 2.9 WNW 13 19 7 10 - - 0.0
29/05:00pm 16.6 14.6 10.2 66 3.4 WNW 11 19 6 10 - - 0.0
29/04:30pm 17.9 15.9 11.5 66 3.5 W 13 19 7 10 - - 0.0
29/04:00pm 16.9 13.5 11.4 70 3.0 WNW 20 28 11 15 - - 0.0
29/03:30pm 18.9 16.5 11.5 62 4.1 WNW 15 20 8 11 - - 0.0
29/03:00pm 18.3 16.9 12.3 68 3.3 W 11 19 6 10 - - 0.0
29/02:30pm 18.8 16.4 11.4 62 4.1 W 15 22 8 12 - - 0.0
29/02:00pm 18.7 16.3 11.5 63 4.0 W 15 24 8 13 - - 0.0
29/01:30pm 19.7 16.0 10.1 54 5.2 WNW 20 30 11 16 - - 0.0
29/01:00pm 19.3 16.3 10.6 57 4.7 WNW 17 24 9 13 - - 0.0
29/12:30pm 19.2 16.2 10.5 57 4.7 WNW 17 24 9 13 - - 0.0
29/12:00pm 19.4 16.6 10.1 55 5.0 W 15 20 8 11 - - 0.0
29/11:30am 18.8 16.6 10.9 60 4.3 W 13 20 7 11 - - 0.0
29/11:00am 19.1 16.3 11.2 60 4.3 W 17 24 9 13 - - 0.0
29/10:30am 18.2 16.4 10.8 62 4.0 W 11 15 6 8 - - 0.0
29/10:00am 17.8 15.4 11.4 66 3.5 W 15 22 8 12 - - 0.0
29/09:30am 16.5 13.3 11.9 74 2.5 W 20 32 11 17 - - 0.0
29/09:00am 17.2 14.6 10.8 66 3.4 W 15 19 8 10 - - 0.0
29/08:30am 16.6 14.0 10.7 68 3.2 W 15 22 8 12 - - 0.0
29/08:00am 16.1 12.7 10.4 69 3.0 W 19 30 10 16 - - 0.0
29/07:30am 15.8 12.6 11.2 74 2.5 WSW 19 28 10 15 - - 0.0
29/07:00am 15.8 14.5 9.2 65 3.4 W 6 11 3 6 - - 0.0
29/06:30am 16.6 13.0 10.0 65 3.5 W 19 30 10 16 - - 0.0
29/06:00am 16.5 12.9 9.9 65 3.5 W 19 28 10 15 - - 0.0
29/05:30am 16.4 12.6 11.1 71 2.8 W 22 30 12 16 - - 0.0
29/05:00am 16.6 13.0 9.8 64 3.6 WNW 19 24 10 13 - - 0.0
29/04:30am 16.6 13.0 9.8 64 3.6 WNW 19 30 10 16 - - 0.0
29/04:00am 16.4 12.9 10.3 67 3.2 WNW 19 26 10 14 - - 0.0
29/03:30am 16.4 12.7 9.6 64 3.5 W 19 28 10 15 - - 0.0
29/03:00am 16.4 12.9 10.3 67 3.2 WNW 19 28 10 15 - - 0.0
29/02:30am 16.3 12.6 9.3 63 3.6 WNW 19 26 10 14 - - 0.0
29/02:00am 16.3 12.8 10.2 67 3.2 W 19 28 10 15 - - 0.0
29/01:30am 16.3 12.9 10.4 68 3.1 W 19 30 10 16 - - 0.0
29/01:00am 16.6 13.5 11.5 72 2.8 W 19 26 10 14 - - 0.0
29/12:30am 16.5 13.9 11.9 74 2.5 W 17 24 9 13 - - 0.0
29/12:00am 16.6 12.8 11.1 70 3.0 WNW 22 30 12 16 - - 0.0
 
Date/Time
WST
Tmp

°C
App
Tmp
°C
Dew
Point
°C
Rel
Hum
%
Delta-T

°C
Wind Press
QNH
hPa
Press
MSL
hPa
Rain
since
9 am
mm
Dir
 
Spd
km/h
Gust
km/h
Spd
kts
Gust
kts
28/11:30pm 16.6 13.5 12.2 75 2.4 W 20 32 11 17 - - 0.0
28/11:00pm 16.2 13.5 11.6 74 2.5 W 17 28 9 15 - - 0.0
28/10:30pm 16.4 12.9 10.9 70 2.9 W 20 30 11 16 - - 0.0
28/10:00pm 16.2 12.9 11.6 74 2.5 W 20 30 11 16 - - 0.0
28/09:30pm 16.8 13.4 11.3 70 3.0 W 20 33 11 18 - - 0.0
28/09:00pm 16.6 13.4 11.3 71 2.9 W 19 28 10 15 - - 0.0
28/08:30pm 16.2 13.1 11.6 74 2.5 W 19 26 10 14 - - 0.0
28/08:00pm 16.2 12.8 11.2 72 2.7 W 20 30 11 16 - - 0.0
28/07:30pm 16.5 12.9 9.9 65 3.5 W 19 26 10 14 - - 0.0
28/07:00pm 16.4 13.2 12.0 75 2.4 W 20 32 11 17 - - 0.0
28/06:30pm 16.8 13.5 11.5 71 2.9 W 20 30 11 16 - - 0.0
28/06:00pm 16.9 13.4 11.0 68 3.2 W 20 30 11 16 - - 0.0
28/05:30pm 16.9 13.3 10.7 67 3.3 W 20 32 11 17 - - 0.0
28/05:00pm 17.3 13.3 9.2 59 4.2 WNW 20 32 11 17 - - 0.0
28/04:30pm 17.6 13.1 8.7 56 4.6 WNW 22 30 12 16 - - 0.0
28/04:00pm 18.6 14.2 8.8 53 5.1 WNW 22 33 12 18 - - 0.0
28/03:30pm 19.1 15.0 8.7 51 5.4 WNW 20 28 11 15 - - 0.0
28/03:00pm 19.0 14.8 9.8 55 4.9 WNW 22 32 12 17 - - 0.0
28/02:30pm 19.4 15.3 10.1 55 5.0 WNW 22 32 12 17 - - 0.0
28/01:00pm 19.4 15.5 10.7 57 4.7 W 22 28 12 15 - - 0.0
28/12:30pm 19.2 17.2 12.7 66 3.7 W 15 20 8 11 - - 0.0
28/12:00pm 17.8 15.2 12.0 69 3.2 WSW 17 26 9 14 - - 0.0
28/11:30am 17.4 13.6 11.2 67 3.4 WNW 22 32 12 17 - - 0.0
28/11:00am 17.6 14.3 10.9 65 3.6 W 19 26 10 14 - - 0.0
28/10:30am 17.0 13.6 11.1 68 3.2 W 20 32 11 17 - - 0.0
28/10:00am 15.4 11.8 12.0 80 1.8 NW 22 35 12 19 - - 0.0
28/09:30am 15.9 12.6 11.5 75 2.4 W 20 33 11 18 - - 0.0
28/09:00am 14.7 8.9 11.5 81 1.7 WNW 33 48 18 26 - - 1.6
28/08:30am 16.2 13.0 11.4 73 2.6 W 19 32 10 17 - - 1.0
28/08:00am 15.3 12.2 11.5 78 2.0 WNW 19 24 10 13 - - 1.0
28/07:30am 15.8 10.4 11.0 73 2.6 W 30 41 16 22 - - 0.8
28/07:00am 15.7 11.3 10.5 71 2.8 WNW 24 33 13 18 - - 0.8
28/06:30am 16.1 11.2 10.0 67 3.2 W 26 37 14 20 - - 0.8
28/06:00am 15.9 11.8 10.2 69 3.0 W 22 33 12 18 - - 0.8
28/05:30am 16.1 11.2 8.6 61 3.8 WNW 24 33 13 18 - - 0.8
28/05:00am 15.8 11.1 7.8 59 4.0 W 22 33 12 18 - - 0.8
28/04:30am 16.0 11.7 9.4 65 3.4 W 22 33 12 18 - - 0.8
28/04:00am 16.3 11.7 9.7 65 3.5 W 24 37 13 20 - - 0.8
28/03:30am 16.1 12.0 8.6 61 3.8 W 20 28 11 15 - - 0.8
28/03:00am 16.1 11.2 8.6 61 3.8 W 24 35 13 19 - - 0.8
28/02:30am 16.1 11.6 8.6 61 3.8 W 22 30 12 16 - - 0.8
28/02:00am 15.8 11.7 8.5 62 3.7 W 20 32 11 17 - - 0.8
28/01:30am 15.9 10.9 8.2 60 3.9 W 24 35 13 19 - - 0.8
28/01:00am 16.0 11.7 9.2 64 3.5 W 22 35 12 19 - - 0.8
28/12:30am 16.1 11.2 9.8 66 3.3 W 26 39 14 21 - - 0.8
28/12:00am 16.1 11.5 9.5 65 3.4 W 24 33 13 18 - - 0.8
 
Date/Time
WST
Tmp

°C
App
Tmp
°C
Dew
Point
°C
Rel
Hum
%
Delta-T

°C
Wind Press
QNH
hPa
Press
MSL
hPa
Rain
since
9 am
mm
Dir
 
Spd
km/h
Gust
km/h
Spd
kts
Gust
kts
27/11:30pm 16.3 11.1 9.0 62 3.8 W 26 33 14 18 - - 0.8
27/11:00pm 16.2 11.4 8.9 62 3.8 W 24 35 13 19 - - 0.8
27/10:30pm 15.8 11.9 8.8 63 3.6 W 19 30 10 16 - - 0.8
27/10:00pm 15.8 12.6 10.1 69 3.0 W 17 24 9 13 - - 0.8
27/09:30pm 16.3 12.0 10.6 69 3.0 W 24 35 13 19 - - 0.8
27/09:00pm 15.9 12.2 9.6 66 3.3 W 19 28 10 15 - - 0.8
27/08:30pm 16.1 11.4 9.3 64 3.5 W 24 35 13 19 - - 0.8
27/08:00pm 16.1 12.8 10.8 71 2.8 W 19 26 10 14 - - 0.8
27/07:30pm 16.0 12.3 10.3 69 3.0 W 20 33 11 18 - - 0.8
27/07:00pm 16.1 12.5 10.0 67 3.2 W 19 26 10 14 - - 0.8
27/06:30pm 16.1 12.0 10.0 67 3.2 W 22 32 12 17 - - 0.8
27/06:00pm 16.3 12.6 9.3 63 3.6 W 19 28 10 15 - - 0.8
27/05:30pm 16.6 12.9 10.0 65 3.5 W 20 28 11 15 - - 0.8
27/05:00pm 16.6 12.9 10.2 66 3.4 W 20 30 11 16 - - 0.8
27/04:30pm 17.7 13.4 10.8 64 3.7 W 24 32 13 17 - - 0.8
27/04:00pm 17.9 14.2 11.5 66 3.5 W 22 33 12 18 - - 0.8
27/03:30pm 18.8 15.8 12.5 67 3.5 WNW 20 32 11 17 - - 0.8
27/03:00pm 18.6 15.0 11.9 65 3.7 W 22 32 12 17 - - 0.8
27/02:30pm 17.8 14.4 12.5 71 2.9 W 22 33 12 18 - - 0.8
27/02:00pm 16.6 13.3 12.8 78 2.1 WNW 22 37 12 20 - - 0.8
27/01:30pm 18.8 15.8 11.9 64 3.8 WNW 19 32 10 17 - - 0.4
27/01:00pm 18.6 15.9 12.8 69 3.3 WNW 19 26 10 14 - - 0.4
27/12:30pm 16.1 14.1 13.8 86 1.3 W 17 37 9 20 - - 0.4
27/12:00pm 17.7 15.2 12.2 70 3.0 W 17 24 9 13 - - 0.2
27/11:30am 15.9 11.4 12.5 80 1.9 W 28 37 15 20 - - 0.2
27/11:00am 16.9 14.0 12.2 74 2.6 W 19 30 10 16 - - 0.0
27/10:30am 16.4 13.2 13.1 81 1.8 WSW 22 35 12 19 - - 0.0
27/10:00am 17.7 13.4 13.2 75 2.5 WNW 28 39 15 21 - - 0.0
27/09:30am 16.1 12.5 13.0 82 1.7 WNW 24 33 13 18 - - 0.0
27/09:00am 17.0 13.0 11.7 71 2.9 WNW 24 33 13 18 - - 14.4
27/08:30am 15.6 11.7 12.0 79 2.0 WNW 24 37 13 20 - - 14.4
27/08:00am 14.4 9.9 12.6 89 1.0 WNW 28 39 15 21 - - 14.4
27/07:38am 14.2 9.5 12.1 87 1.1 W 28 48 15 26 - - 14.4
27/07:30am 15.5 9.8 11.9 79 2.0 W 33 48 18 26 - - 14.2
27/07:00am 15.9 10.8 9.3 65 3.4 WNW 26 35 14 19 - - 14.0
27/06:30am 16.0 10.8 8.7 62 3.7 WNW 26 35 14 19 - - 14.0
27/06:00am 16.0 10.6 8.2 60 3.9 WNW 26 35 14 19 - - 14.0
27/05:30am 15.7 10.4 8.4 62 3.7 WNW 26 37 14 20 - - 14.0
27/05:00am 15.7 10.9 8.9 64 3.5 WNW 24 37 13 20 - - 14.0
27/04:30am 15.9 10.5 8.2 60 3.9 W 26 35 14 19 - - 14.0
27/04:00am 15.8 10.8 8.1 60 3.9 WNW 24 33 13 18 - - 14.0
27/03:30am 15.7 10.3 8.0 60 3.9 W 26 35 14 19 - - 14.0
27/03:00am 15.8 11.5 7.8 59 4.0 WNW 20 37 11 20 - - 14.0
27/02:30am 15.8 10.2 7.3 57 4.2 W 26 41 14 22 - - 14.0
27/02:00am 15.6 11.1 6.1 53 4.6 WNW 19 30 10 16 - - 14.0
27/01:30am 16.1 9.7 6.8 54 4.6 W 30 43 16 23 - - 14.0
27/01:00am 15.9 10.7 7.1 56 4.4 W 24 33 13 18 - - 14.0
27/12:30am 15.8 10.9 7.1 56 4.3 WNW 22 33 12 18 - - 14.0
27/12:00am 15.7 10.1 5.6 51 4.8 W 24 39 13 21 - - 14.0
 
Date/Time
WST
Tmp

°C
App
Tmp
°C
Dew
Point
°C
Rel
Hum
%
Delta-T

°C
Wind Press
QNH
hPa
Press
MSL
hPa
Rain
since
9 am
mm
Dir
 
Spd
km/h
Gust
km/h
Spd
kts
Gust
kts
26/11:30pm 15.7 9.6 5.0 49 5.1 W 26 37 14 20 - - 14.0
26/11:00pm 15.7 10.9 7.5 58 4.1 W 22 33 12 18 - - 14.0

Latest Capital City Observations: Canberra | Sydney | Melbourne | Brisbane | Adelaide | Perth | Hobart | Darwin

Other Formats:

Comma delimited format used in spreadsheet applications
http://www.bom.gov.au/fwo/IDW60901/IDW60901.94614.axf

JavaScript Object Notation format (JSON) in row-major order
http://www.bom.gov.au/fwo/IDW60901/IDW60901.94614.json